Time;durP1;ratioP1;P1;durP2;ratioP2;P2;SDS_P1;SDS_P2;PMS_P1;PMS_P2;Temp;Humidity;BMP_temperature;BMP_pressure;BME280_temperature;BME280_humidity;BME280_pressure;Samples;Min_cycle;Max_cycle;Signal;HPM_P1;HPM_P2
2023/03/16 05:02:04;;;;;;;7.27;4.47;;;20.00;47.40;;;;;;5088930;27;20953;-70
2023/03/16 05:04:33;;;;;;;7.80;4.67;;;13.90;43.10;;;;;;5088024;28;20196;-69
2023/03/16 05:07:03;;;;;;;7.20;4.67;;;9.80;50.40;;;;;;5088014;28;20696;-67
2023/03/16 05:09:37;;;;;;;11.37;5.30;;;7.40;56.60;;;;;;5087855;28;20670;-69
2023/03/16 05:12:07;;;;;;;10.00;4.70;;;5.80;63.00;;;;;;5088002;28;20205;-68
2023/03/16 05:14:36;;;;;;;7.47;4.80;;;4.80;75.70;;;;;;5084239;28;20205;-65
2023/03/16 05:17:29;;;;;;;13.67;5.00;;;4.30;90.20;;;;;;5088950;28;20203;-69
2023/03/16 05:19:58;;;;;;;10.10;4.90;;;4.00;95.20;;;;;;5068388;28;20211;-65
2023/03/16 05:22:27;;;;;;;8.87;5.37;;;3.80;98.20;;;;;;5067565;28;20206;-67
2023/03/16 05:25:13;;;;;;;13.63;4.60;;;3.50;99.90;;;;;;5067270;28;20666;-65
2023/03/16 05:27:46;;;;;;;9.73;4.20;;;3.50;99.90;;;;;;5067472;28;20206;-67
2023/03/16 05:30:21;;;;;;;9.03;4.20;;;3.50;99.90;;;;;;5101051;28;20279;-65
2023/03/16 05:32:56;;;;;;;12.20;4.67;;;3.50;99.90;;;;;;5101174;28;20394;-67
2023/03/16 05:35:26;;;;;;;10.67;4.90;;;3.30;99.90;;;;;;5100881;28;20668;-67
2023/03/16 05:38:00;;;;;;;9.80;4.30;;;3.40;99.90;;;;;;5067103;28;20208;-68
2023/03/16 05:40:31;;;;;;;8.90;4.80;;;3.50;99.90;;;;;;5100625;28;20249;-66
2023/03/16 05:43:15;;;;;;;5.70;4.53;;;3.60;99.90;;;;;;5067043;28;20289;-67
2023/03/16 05:45:49;;;;;;;7.43;5.10;;;3.60;99.90;;;;;;5066963;28;20285;-66
2023/03/16 05:48:21;;;;;;;12.57;5.77;;;3.50;99.90;;;;;;5100621;28;20198;-67
2023/03/16 05:50:54;;;;;;;8.03;5.07;;;3.70;99.90;;;;;;5068035;28;20741;-66
2023/03/16 05:53:28;;;;;;;9.47;4.57;;;3.80;99.90;;;;;;5066922;28;20210;-67
2023/03/16 05:56:04;;;;;;;10.43;4.70;;;4.00;99.90;;;;;;5100619;28;20253;-69
2023/03/16 05:58:35;;;;;;;9.90;4.90;;;3.90;99.90;;;;;;5066963;28;20206;-67
2023/03/16 06:01:08;;;;;;;12.40;4.53;;;4.00;99.90;;;;;;5100239;28;20240;-66
2023/03/16 06:03:38;;;;;;;8.80;4.47;;;4.00;99.90;;;;;;5066799;28;20208;-68
2023/03/16 06:06:09;;;;;;;8.70;4.47;;;4.00;99.90;;;;;;5066666;28;20260;-66
2023/03/16 06:08:49;;;;;;;10.13;4.30;;;4.10;99.90;;;;;;5066433;28;20213;-68
2023/03/16 06:11:20;;;;;;;6.93;3.90;;;4.10;99.90;;;;;;5098370;28;20292;-66
2023/03/16 06:13:48;;;;;;;7.37;4.10;;;4.20;99.90;;;;;;5053145;28;20744;-65
2023/03/16 06:16:18;;;;;;;10.10;4.40;;;4.30;99.90;;;;;;5053201;28;20202;-65
2023/03/16 06:18:48;;;;;;;10.20;4.07;;;4.30;99.90;;;;;;5053189;28;20627;-66
2023/03/16 06:21:16;;;;;;;7.90;4.53;;;4.40;99.90;;;;;;5052987;28;20742;-65
2023/03/16 06:23:48;;;;;;;10.93;5.37;;;4.50;99.90;;;;;;5053058;28;20211;-66
2023/03/16 06:26:16;;;;;;;15.17;4.47;;;4.50;99.90;;;;;;5052886;28;20204;-65
2023/03/16 06:28:48;;;;;;;11.43;5.00;;;4.50;99.90;;;;;;5053235;28;20200;-66
2023/03/16 06:31:17;;;;;;;11.40;4.40;;;4.80;99.90;;;;;;5052784;28;20216;-67
2023/03/16 06:33:48;;;;;;;13.33;4.57;;;4.80;99.90;;;;;;5054772;28;20242;-67
2023/03/16 06:36:17;;;;;;;7.47;4.40;;;4.90;99.90;;;;;;5052739;28;20226;-67
2023/03/16 06:38:50;;;;;;;9.70;5.00;;;5.20;99.00;;;;;;5052728;28;20258;-67
2023/03/16 06:41:38;;;;;;;8.43;3.90;;;5.40;96.80;;;;;;5052633;28;20236;-69
2023/03/16 06:44:06;;;;;;;15.13;4.50;;;5.40;97.30;;;;;;5054066;28;20753;-69
2023/03/16 06:46:40;;;;;;;13.17;5.07;;;5.40;96.70;;;;;;5052625;28;20286;-67
2023/03/16 06:49:11;;;;;;;11.40;4.60;;;5.50;97.00;;;;;;5086155;28;20196;-67
2023/03/16 06:51:40;;;;;;;13.77;4.80;;;5.60;95.50;;;;;;5052535;28;20679;-66
2023/03/16 06:54:09;;;;;;;12.57;5.53;;;5.90;94.20;;;;;;5052609;28;20202;-66
2023/03/16 06:56:40;;;;;;;13.93;4.63;;;6.10;92.30;;;;;;5052437;28;20551;-66
2023/03/16 06:59:09;;;;;;;14.30;4.80;;;6.30;91.60;;;;;;5053922;28;20552;-66
2023/03/16 07:01:38;;;;;;;11.37;5.33;;;6.50;90.30;;;;;;5052086;28;20240;-68
2023/03/16 07:04:07;;;;;;;11.07;4.73;;;6.60;86.30;;;;;;5052367;28;20244;-68
2023/03/16 07:06:37;;;;;;;9.70;3.97;;;6.30;87.90;;;;;;5085807;28;20251;-69
2023/03/16 07:09:06;;;;;;;11.83;4.33;;;6.30;90.70;;;;;;5052227;28;20671;-68
2023/03/16 07:11:35;;;;;;;12.70;4.60;;;6.70;88.30;;;;;;5052182;28;20204;-68
2023/03/16 07:14:04;;;;;;;10.83;4.43;;;6.90;82.20;;;;;;5051998;28;20338;-66
2023/03/16 07:16:33;;;;;;;8.93;4.03;;;7.10;80.30;;;;;;5085574;28;20200;-67
2023/03/16 07:19:04;;;;;;;4.77;3.53;;;7.10;80.40;;;;;;5051835;28;20208;-66
2023/03/16 07:21:38;;;;;;;7.23;3.70;;;7.10;80.30;;;;;;5085274;28;20222;-67
2023/03/16 07:24:13;;;;;;;6.87;3.80;;;6.80;83.80;;;;;;5052113;28;20299;-69
2023/03/16 07:26:42;;;;;;;59.60;28.80;;;7.00;81.90;;;;;;5085112;28;20202;-68
2023/03/16 07:29:15;;;;;;;19.37;11.40;;;7.00;90.90;;;;;;5051822;28;20201;-66
2023/03/16 07:31:45;;;;;;;15.00;8.13;;;7.30;83.20;;;;;;5051913;28;20215;-68
2023/03/16 07:34:19;;;;;;;12.43;6.23;;;7.30;82.30;;;;;;5051702;28;20197;-68
2023/03/16 07:36:54;;;;;;;7.20;4.33;;;7.70;78.60;;;;;;5085510;28;20304;-67
2023/03/16 07:39:27;;;;;;;9.50;5.20;;;8.00;74.60;;;;;;5051468;28;20268;-68
2023/03/16 07:42:04;;;;;;;6.07;4.07;;;8.40;72.40;;;;;;5085031;28;20253;-68
2023/03/16 07:44:52;;;;;;;14.97;9.10;;;8.70;68.30;;;;;;5030589;28;20234;-68
2023/03/16 07:47:21;;;;;;;6.37;4.80;;;8.80;72.80;;;;;;5030666;28;20595;-69
2023/03/16 07:49:56;;;;;;;8.73;5.40;;;8.90;66.90;;;;;;5013934;28;20206;-68
2023/03/16 07:52:25;;;;;;;14.30;5.87;;;9.50;65.90;;;;;;5014008;28;20198;-66
2023/03/16 07:54:55;;;;;;;13.30;8.50;;;9.10;64.00;;;;;;5013348;28;20199;-69
2023/03/16 07:57:24;;;;;;;12.10;6.37;;;8.60;67.10;;;;;;5013869;28;20572;-66
2023/03/16 07:59:53;;;;;;;7.53;4.70;;;8.50;68.60;;;;;;5013575;28;20202;-69
2023/03/16 08:02:22;;;;;;;9.03;4.37;;;8.40;68.60;;;;;;5030249;28;20308;-68
2023/03/16 08:04:51;;;;;;;8.63;4.20;;;8.10;68.20;;;;;;5013618;28;20200;-68
2023/03/16 08:07:20;;;;;;;6.77;4.33;;;8.10;69.40;;;;;;5030364;28;20206;-69
2023/03/16 08:10:05;;;;;;;7.30;4.30;;;7.90;70.30;;;;;;5013487;28;20316;-68
2023/03/16 08:12:41;;;;;;;4.17;3.33;;;7.70;72.10;;;;;;5013635;28;20202;-69
2023/03/16 08:15:11;;;;;;;7.63;5.73;;;7.50;73.30;;;;;;5013423;28;20742;-68
2023/03/16 08:17:41;;;;;;;7.97;4.53;;;7.40;75.20;;;;;;5013460;28;20303;-66
2023/03/16 08:20:15;;;;;;;6.50;4.10;;;7.40;75.70;;;;;;5013305;28;20656;-65
2023/03/16 08:22:45;;;;;;;7.47;4.30;;;7.30;76.70;;;;;;5039029;28;20312;-68
2023/03/16 08:25:19;;;;;;;6.90;3.80;;;7.10;77.40;;;;;;5050491;28;20231;-67
2023/03/16 08:27:57;;;;;;;8.13;5.00;;;7.00;78.30;;;;;;5050591;28;20243;-66
2023/03/16 08:30:26;;;;;;;12.60;4.27;;;6.80;80.60;;;;;;5051837;28;20198;-68
2023/03/16 08:33:12;;;;;;;6.07;3.80;;;6.70;81.20;;;;;;5050526;28;20236;-67
2023/03/16 08:35:43;;;;;;;6.97;3.60;;;6.60;81.60;;;;;;5083965;28;20260;-68
2023/03/16 08:38:13;;;;;;;4.57;3.27;;;6.70;81.90;;;;;;5050471;28;20301;-67
2023/03/16 08:40:47;;;;;;;8.07;4.40;;;6.80;79.50;;;;;;5050694;28;20204;-68
2023/03/16 08:43:19;;;;;;;6.27;3.60;;;6.60;80.20;;;;;;5050381;28;20228;-69
2023/03/16 08:45:49;;;;;;;14.93;7.53;;;6.70;81.10;;;;;;5050327;28;20216;-68
2023/03/16 08:48:21;;;;;;;4.57;3.60;;;7.00;80.20;;;;;;5050446;28;20210;-67
2023/03/16 08:50:52;;;;;;;7.07;3.47;;;7.30;77.10;;;;;;5083871;28;20202;-70
2023/03/16 08:53:21;;;;;;;6.67;3.93;;;7.50;76.40;;;;;;5051703;28;20205;-69
2023/03/16 08:55:51;;;;;;;4.20;3.77;;;7.70;73.00;;;;;;5051509;28;20201;-68
2023/03/16 08:58:20;;;;;;;3.97;3.57;;;8.00;72.10;;;;;;5051771;28;20197;-67
2023/03/16 09:00:49;;;;;;;3.93;3.30;;;8.30;71.40;;;;;;5051302;28;20229;-69
2023/03/16 09:03:18;;;;;;;5.70;4.27;;;8.50;69.40;;;;;;5051505;28;20950;-70
2023/03/16 09:05:48;;;;;;;13.13;5.97;;;8.40;67.50;;;;;;5051584;28;20282;-69
2023/03/16 09:08:17;;;;;;;5.33;3.93;;;8.30;67.30;;;;;;5051646;28;20212;-66
2023/03/16 09:10:46;;;;;;;5.80;4.03;;;8.30;67.60;;;;;;5051391;28;20213;-69
2023/03/16 09:13:16;;;;;;;13.60;6.77;;;8.50;68.70;;;;;;5051548;28;20200;-70
2023/03/16 09:15:44;;;;;;;7.37;5.00;;;8.60;68.00;;;;;;5051420;28;20220;-68
2023/03/16 09:18:13;;;;;;;7.57;4.40;;;8.30;66.40;;;;;;5051235;28;20208;-66
2023/03/16 09:20:42;;;;;;;6.60;3.57;;;8.20;68.20;;;;;;5051392;28;20229;-71
2023/03/16 09:23:12;;;;;;;5.07;3.40;;;8.00;68.30;;;;;;5051280;28;20213;-70
2023/03/16 09:25:41;;;;;;;5.83;3.77;;;8.00;69.80;;;;;;5051387;28;20197;-70
2023/03/16 09:28:10;;;;;;;5.43;3.43;;;8.20;69.60;;;;;;5051482;28;20252;-70
2023/03/16 09:30:49;;;;;;;5.97;3.93;;;8.50;68.20;;;;;;5051501;28;20205;-69
2023/03/16 09:33:24;;;;;;;5.43;3.50;;;8.70;66.80;;;;;;5051007;28;20280;-69
2023/03/16 09:35:54;;;;;;;6.93;3.60;;;8.80;65.20;;;;;;5051198;28;20677;-68
2023/03/16 09:38:24;;;;;;;4.10;3.23;;;8.80;65.50;;;;;;5051403;28;20644;-68
2023/03/16 09:40:59;;;;;;;4.60;3.67;;;8.70;65.20;;;;;;5051142;28;20195;-69
2023/03/16 09:43:57;;;;;;;3.73;2.73;;;8.70;64.30;;;;;;5050955;28;20224;-68
2023/03/16 09:46:31;;;;;;;4.90;3.33;;;8.70;65.50;;;;;;5051117;28;20281;-70
2023/03/16 09:49:02;;;;;;;3.90;3.50;;;8.60;65.40;;;;;;5055003;28;20202;-71
2023/03/16 09:51:40;;;;;;;4.30;3.03;;;8.40;66.10;;;;;;5054780;28;20198;-66
2023/03/16 09:54:18;;;;;;;4.67;3.03;;;8.30;66.80;;;;;;5055152;28;20207;-68
2023/03/16 09:56:50;;;;;;;4.33;3.00;;;8.70;67.00;;;;;;5054522;28;20222;-66
2023/03/16 09:59:19;;;;;;;3.50;2.57;;;8.90;64.20;;;;;;5054758;28;20194;-65
2023/03/16 10:02:00;;;;;;;7.30;4.43;;;8.70;64.80;;;;;;5054367;28;20578;-69
2023/03/16 10:04:41;;;;;;;9.03;3.77;;;8.70;65.60;;;;;;5054964;28;20683;-67
2023/03/16 10:07:21;;;;;;;7.70;3.63;;;9.00;65.80;;;;;;5054550;28;20284;-68
2023/03/16 10:09:57;;;;;;;5.37;3.67;;;8.80;65.90;;;;;;5054423;28;20273;-67
2023/03/16 10:12:32;;;;;;;5.13;3.57;;;8.60;66.90;;;;;;5054392;28;20660;-68
2023/03/16 10:15:06;;;;;;;4.87;2.87;;;8.30;68.10;;;;;;5054239;28;20217;-69
2023/03/16 10:17:44;;;;;;;4.30;2.80;;;8.00;69.60;;;;;;5054226;28;20279;-71
2023/03/16 10:20:16;;;;;;;3.87;3.10;;;7.90;71.70;;;;;;5054217;28;20193;-71
2023/03/16 10:22:46;;;;;;;4.40;2.90;;;8.00;72.90;;;;;;5054260;28;20221;-72
2023/03/16 10:25:22;;;;;;;5.07;2.77;;;8.10;72.90;;;;;;5054118;28;20749;-72
2023/03/16 10:27:50;;;;;;;3.23;2.87;;;7.80;73.70;;;;;;5053836;28;20272;-69
2023/03/16 10:30:23;;;;;;;3.53;2.67;;;7.50;77.00;;;;;;5054076;28;20648;-70
2023/03/16 10:32:53;;;;;;;3.50;3.10;;;7.50;78.10;;;;;;5053997;28;20618;-72
2023/03/16 10:35:41;;;;;;;5.47;3.00;;;7.40;81.30;;;;;;5053851;28;20198;-73
2023/03/16 10:38:25;;;;;;;4.10;3.70;;;7.80;81.50;;;;;;5053943;28;20230;-73
2023/03/16 10:40:56;;;;;;;5.17;3.50;;;8.10;77.80;;;;;;5053856;28;20228;-72
2023/03/16 10:43:25;;;;;;;7.20;3.73;;;8.30;75.50;;;;;;5053742;28;20695;-69
2023/03/16 10:46:01;;;;;;;7.83;3.40;;;8.40;75.10;;;;;;5053789;28;20549;-70
2023/03/16 10:48:34;;;;;;;5.27;3.60;;;8.40;73.00;;;;;;5053656;28;20226;-72
2023/03/16 10:51:07;;;;;;;4.57;2.63;;;8.30;74.00;;;;;;5053800;28;20276;-73
2023/03/16 10:53:39;;;;;;;4.33;2.90;;;7.70;79.40;;;;;;5053656;28;20722;-68
2023/03/16 10:56:13;;;;;;;2.73;2.53;;;7.10;90.70;;;;;;5053656;28;20277;-72
2023/03/16 10:58:45;;;;;;;3.10;2.83;;;7.00;95.10;;;;;;5053369;28;20186;-69
2023/03/16 11:01:19;;;;;;;3.33;2.80;;;7.20;97.10;;;;;;5053160;28;20255;-71
2023/03/16 11:03:52;;;;;;;4.37;2.60;;;7.30;97.00;;;;;;5053241;28;20221;-70
2023/03/16 11:06:23;;;;;;;3.20;3.00;;;7.20;95.90;;;;;;5053442;28;20205;-66
2023/03/16 11:08:53;;;;;;;3.97;3.57;;;7.40;97.30;;;;;;5053495;28;20548;-68
2023/03/16 11:11:27;;;;;;;5.33;3.67;;;7.60;97.20;;;;;;5053320;28;20604;-69
2023/03/16 11:13:59;;;;;;;3.60;3.30;;;7.70;96.80;;;;;;5053488;28;20206;-68
2023/03/16 11:16:35;;;;;;;3.03;2.70;;;8.20;94.70;;;;;;5053296;28;20198;-71
2023/03/16 11:19:14;;;;;;;2.67;2.47;;;8.30;88.60;;;;;;5053254;28;20663;-66
2023/03/16 11:21:53;;;;;;;2.47;2.27;;;8.40;87.10;;;;;;5053229;28;20556;-67
2023/03/16 11:24:27;;;;;;;3.47;3.00;;;8.30;86.60;;;;;;5053341;28;20255;-66
2023/03/16 11:27:01;;;;;;;4.27;3.10;;;8.10;88.30;;;;;;5052924;28;20206;-66
2023/03/16 11:29:41;;;;;;;8.93;3.80;;;7.80;90.30;;;;;;5052776;28;20201;-67
2023/03/16 11:32:14;;;;;;;5.40;3.03;;;7.60;88.30;;;;;;5052801;28;20706;-65
2023/03/16 11:34:46;;;;;;;4.67;3.00;;;7.50;86.90;;;;;;5052909;28;20226;-65
2023/03/16 11:37:26;;;;;;;4.67;3.70;;;7.90;85.10;;;;;;5052741;28;20206;-69
2023/03/16 11:40:08;;;;;;;4.03;2.47;;;8.00;82.30;;;;;;5052844;28;20265;-69
2023/03/16 11:42:42;;;;;;;4.27;3.20;;;8.10;83.60;;;;;;5052967;28;20209;-68
2023/03/16 11:45:19;;;;;;;5.23;2.70;;;8.30;79.30;;;;;;5052756;28;20318;-66
2023/03/16 11:48:14;;;;;;;7.10;3.10;;;8.50;74.90;;;;;;5052610;28;20197;-67
2023/03/16 11:51:01;;;;;;;4.47;2.70;;;8.60;75.70;;;;;;5030416;28;20278;-67
2023/03/16 11:53:49;;;;;;;3.30;2.83;;;8.30;75.80;;;;;;5030185;28;20586;-67
2023/03/16 11:56:33;;;;;;;5.77;2.97;;;8.10;73.30;;;;;;5030320;28;20206;-66
2023/03/16 11:59:37;;;;;;;3.70;2.80;;;8.40;74.10;;;;;;5030417;28;20292;-69
2023/03/16 12:02:36;;;;;;;2.80;2.43;;;9.40;69.20;;;;;;5030249;28;20574;-67
2023/03/16 12:05:43;;;;;;;5.27;2.93;;;9.70;63.90;;;;;;5030173;28;20255;-68
2023/03/16 12:08:39;;;;;;;4.23;2.50;;;10.20;61.00;;;;;;4990744;28;20302;-67
2023/03/16 12:11:12;;;;;;;3.13;2.50;;;9.60;61.10;;;;;;4990402;28;20293;-67
2023/03/16 12:13:56;;;;;;;3.87;2.37;;;9.50;63.00;;;;;;4990682;28;20200;-67
2023/03/16 12:16:29;;;;;;;4.60;2.97;;;9.00;62.90;;;;;;4990698;28;20209;-67
2023/03/16 12:19:18;;;;;;;7.93;2.90;;;8.90;64.90;;;;;;4990618;28;20219;-69
2023/03/16 12:21:53;;;;;;;5.13;3.47;;;9.50;64.70;;;;;;4990645;28;20208;-68
2023/03/16 12:24:28;;;;;;;4.37;3.50;;;9.20;63.90;;;;;;4990374;28;20252;-66
2023/03/16 12:26:58;;;;;;;4.47;3.20;;;9.10;65.10;;;;;;4991436;28;20622;-67
2023/03/16 12:29:34;;;;;;;3.87;3.20;;;8.80;65.50;;;;;;5010174;28;20590;-68
2023/03/16 12:32:11;;;;;;;5.27;3.20;;;11.20;61.90;;;;;;5010163;28;20224;-67
2023/03/16 12:34:45;;;;;;;6.40;2.67;;;11.60;55.40;;;;;;5010166;28;20957;-66
2023/03/16 12:37:33;;;;;;;4.30;2.97;;;11.20;55.20;;;;;;5009928;28;20633;-67
2023/03/16 12:40:14;;;;;;;4.60;4.20;;;10.30;56.70;;;;;;5009959;28;20201;-68
2023/03/16 12:42:57;;;;;;;6.67;2.87;;;9.80;58.00;;;;;;5009940;28;20229;-66
2023/03/16 12:45:34;;;;;;;5.83;2.80;;;9.50;59.10;;;;;;5033071;28;20309;-67
2023/03/16 12:48:14;;;;;;;5.73;2.60;;;9.20;60.00;;;;;;5051655;28;20199;-68
2023/03/16 12:50:51;;;;;;;4.27;2.50;;;9.50;61.70;;;;;;5051818;28;20604;-67
2023/03/16 12:53:39;;;;;;;5.23;2.90;;;11.00;58.10;;;;;;5051586;28;20254;-71
2023/03/16 12:56:12;;;;;;;5.70;3.10;;;10.40;57.10;;;;;;5051723;28;20228;-70
2023/03/16 12:58:44;;;;;;;6.20;2.77;;;10.40;57.50;;;;;;5051470;28;20754;-70
2023/03/16 13:01:15;;;;;;;6.60;3.23;;;10.20;57.60;;;;;;5051294;28;20234;-67
2023/03/16 13:03:46;;;;;;;4.20;2.60;;;13.10;53.00;;;;;;5051591;28;20197;-71
2023/03/16 13:06:21;;;;;;;7.20;2.53;;;15.90;48.80;;;;;;5051536;28;20200;-72
2023/03/16 13:08:56;;;;;;;4.93;2.10;;;19.10;42.40;;;;;;5051271;28;20214;-69
2023/03/16 13:11:27;;;;;;;5.67;2.23;;;16.90;40.00;;;;;;5051341;28;20202;-70
2023/03/16 13:14:11;;;;;;;5.97;2.20;;;14.90;43.70;;;;;;5051342;28;20577;-70
2023/03/16 13:16:40;;;;;;;8.07;2.40;;;13.50;46.80;;;;;;5051426;28;20277;-68
2023/03/16 13:19:26;;;;;;;6.13;2.87;;;12.00;49.80;;;;;;5051211;28;20642;-70
2023/03/16 13:22:03;;;;;;;4.50;2.63;;;11.10;51.70;;;;;;5051813;28;20205;-69
2023/03/16 13:24:40;;;;;;;4.57;3.80;;;10.00;53.70;;;;;;5055374;28;20638;-69
2023/03/16 13:27:22;;;;;;;5.33;3.40;;;11.90;54.60;;;;;;5055181;28;20212;-68
2023/03/16 13:29:56;;;;;;;6.50;2.00;;;15.90;45.60;;;;;;5055204;28;20259;-68
2023/03/16 13:32:27;;;;;;;5.93;2.60;;;14.90;44.60;;;;;;5054990;28;20218;-67
2023/03/16 13:34:59;;;;;;;4.80;2.90;;;13.30;47.50;;;;;;5055111;28;20198;-70
2023/03/16 13:37:29;;;;;;;6.10;2.80;;;12.40;48.90;;;;;;5055099;28;20202;-72
2023/03/16 13:40:00;;;;;;;6.33;3.07;;;12.00;50.10;;;;;;5055001;28;20198;-68
2023/03/16 13:42:32;;;;;;;7.80;3.00;;;11.70;52.00;;;;;;5054864;28;20267;-68
2023/03/16 13:45:13;;;;;;;8.93;3.50;;;11.20;51.90;;;;;;5054839;28;20217;-71
2023/03/16 13:47:44;;;;;;;6.73;2.50;;;11.70;53.20;;;;;;5055053;28;20205;-71
2023/03/16 13:50:14;;;;;;;6.50;2.90;;;11.00;52.10;;;;;;5054917;28;20201;-67
2023/03/16 13:52:57;;;;;;;7.90;3.20;;;10.20;53.70;;;;;;5054626;28;20565;-70
2023/03/16 13:55:33;;;;;;;6.20;2.77;;;10.00;55.50;;;;;;5054637;28;20205;-71
2023/03/16 13:58:04;;;;;;;5.43;3.10;;;11.30;53.60;;;;;;5054830;28;20210;-72
2023/03/16 14:00:35;;;;;;;6.67;2.73;;;11.50;52.30;;;;;;5054391;28;20309;-72
2023/03/16 14:03:14;;;;;;;3.77;2.43;;;11.90;51.20;;;;;;5054764;28;20201;-71
2023/03/16 14:05:44;;;;;;;3.90;2.40;;;12.00;50.90;;;;;;5054477;28;20216;-72
2023/03/16 14:08:18;;;;;;;4.43;3.03;;;11.90;50.50;;;;;;5054659;28;20196;-71
2023/03/16 14:10:47;;;;;;;3.70;2.60;;;12.00;50.90;;;;;;5054629;28;20202;-71
2023/03/16 14:13:32;;;;;;;6.67;2.60;;;12.00;50.60;;;;;;5054506;28;20199;-70
2023/03/16 14:16:03;;;;;;;2.50;2.10;;;12.10;50.20;;;;;;5054373;28;20271;-72
2023/03/16 14:18:35;;;;;;;4.93;2.30;;;12.20;49.70;;;;;;5054379;28;20691;-71
2023/03/16 14:21:08;;;;;;;6.90;2.93;;;12.20;49.60;;;;;;5054493;28;20203;-69
2023/03/16 14:23:41;;;;;;;5.97;3.07;;;12.30;49.70;;;;;;5054303;28;20734;-70
2023/03/16 14:26:14;;;;;;;4.23;2.70;;;12.10;50.00;;;;;;5054300;28;20740;-70
2023/03/16 14:28:56;;;;;;;5.53;2.80;;;11.30;50.60;;;;;;5054269;28;20204;-66
2023/03/16 14:31:34;;;;;;;6.63;3.17;;;10.80;51.60;;;;;;5054319;28;20713;-66
2023/03/16 14:34:07;;;;;;;5.13;2.50;;;10.30;52.20;;;;;;5053671;28;20736;-66
2023/03/16 14:36:37;;;;;;;5.43;3.40;;;10.30;52.70;;;;;;5054163;28;20589;-69
2023/03/16 14:39:15;;;;;;;8.53;3.13;;;10.60;52.00;;;;;;5054133;28;20212;-69
2023/03/16 14:41:48;;;;;;;6.40;2.97;;;10.80;51.20;;;;;;5053926;28;20250;-68
2023/03/16 14:44:25;;;;;;;5.70;3.13;;;10.80;50.70;;;;;;5053769;28;20292;-67
2023/03/16 14:46:56;;;;;;;6.30;3.27;;;10.40;51.30;;;;;;5053756;28;20710;-70
2023/03/16 14:49:27;;;;;;;7.87;3.53;;;10.10;52.00;;;;;;5053716;28;20277;-66
2023/03/16 14:52:02;;;;;;;4.23;3.07;;;9.80;52.30;;;;;;5053649;28;20740;-67
2023/03/16 14:54:31;;;;;;;5.10;3.10;;;9.40;52.90;;;;;;5053608;28;20201;-67
2023/03/16 14:57:02;;;;;;;6.57;3.70;;;9.00;53.20;;;;;;5053759;28;20200;-66
2023/03/16 14:59:33;;;;;;;5.73;3.37;;;9.10;54.20;;;;;;5053467;28;20204;-66
2023/03/16 15:02:03;;;;;;;5.00;3.00;;;9.40;53.70;;;;;;5053543;28;20204;-68
2023/03/16 15:04:34;;;;;;;7.03;2.70;;;9.60;53.50;;;;;;5053516;28;20681;-66
2023/03/16 15:07:19;;;;;;;4.67;2.87;;;9.70;53.60;;;;;;5053433;28;20252;-67
2023/03/16 15:09:48;;;;;;;6.57;3.30;;;9.80;53.70;;;;;;5053323;28;20209;-66
2023/03/16 15:12:19;;;;;;;7.77;3.10;;;9.90;53.80;;;;;;5053223;28;20587;-66
2023/03/16 15:17:35;;;;;;;8.60;2.80;;;9.40;54.70;;;;;;5053249;28;20573;-67
2023/03/16 15:20:05;;;;;;;4.50;3.07;;;9.20;54.90;;;;;;5053113;28;20284;-66
2023/03/16 15:22:37;;;;;;;6.97;2.50;;;9.10;55.10;;;;;;5051792;28;20220;-66
2023/03/16 15:25:20;;;;;;;6.10;3.27;;;8.80;55.40;;;;;;5052878;28;20205;-65
2023/03/16 15:27:49;;;;;;;4.77;3.47;;;8.60;56.10;;;;;;5052948;28;20203;-65
2023/03/16 15:30:21;;;;;;;5.53;3.20;;;8.40;56.60;;;;;;5053013;28;20204;-68
2023/03/16 15:32:50;;;;;;;6.17;2.90;;;8.40;56.80;;;;;;5053046;28;20199;-67
2023/03/16 15:35:20;;;;;;;10.33;3.70;;;8.50;57.10;;;;;;5052788;28;20213;-65
2023/03/16 15:37:48;;;;;;;5.13;3.00;;;8.70;56.80;;;;;;5052880;28;20288;-66
2023/03/16 15:40:20;;;;;;;4.07;2.60;;;8.60;55.80;;;;;;5052707;28;20196;-67
2023/03/16 15:42:49;;;;;;;3.07;2.27;;;8.70;55.80;;;;;;5052674;28;20282;-65
2023/03/16 15:45:22;;;;;;;6.87;2.67;;;8.80;55.90;;;;;;5051778;28;20214;-66
2023/03/16 15:47:51;;;;;;;6.50;2.77;;;8.60;55.90;;;;;;5052613;28;20205;-66
2023/03/16 15:50:23;;;;;;;7.37;4.27;;;8.60;56.30;;;;;;5052619;28;20207;-66
2023/03/16 15:52:55;;;;;;;7.43;4.73;;;8.50;56.20;;;;;;5052551;28;20407;-69
2023/03/16 15:55:32;;;;;;;7.40;2.87;;;8.40;56.30;;;;;;5052731;28;20204;-66
2023/03/16 15:58:02;;;;;;;5.10;2.60;;;8.40;56.10;;;;;;5052446;28;20199;-67
2023/03/16 16:00:34;;;;;;;23.33;11.20;;;8.20;56.00;;;;;;5052069;28;20325;-65
2023/03/16 16:03:05;;;;;;;11.67;3.80;;;8.00;56.20;;;;;;5052351;28;20492;-68
2023/03/16 16:05:35;;;;;;;6.20;2.90;;;7.80;56.20;;;;;;5052144;28;20239;-68
2023/03/16 16:08:03;;;;;;;9.20;3.10;;;7.60;56.60;;;;;;5052432;28;20697;-66
2023/03/16 16:10:32;;;;;;;5.00;2.40;;;7.70;56.80;;;;;;5052212;28;20202;-67
2023/03/16 16:13:01;;;;;;;4.03;3.03;;;7.50;57.20;;;;;;5052194;28;20705;-66
2023/03/16 16:15:35;;;;;;;3.43;2.53;;;7.50;56.80;;;;;;5052252;28;20275;-65
2023/03/16 16:18:21;;;;;;;5.67;4.07;;;7.50;56.90;;;;;;5052035;28;20202;-66
2023/03/16 16:20:50;;;;;;;7.63;4.73;;;7.50;57.00;;;;;;5051969;28;20203;-65
2023/03/16 16:23:18;;;;;;;4.80;3.23;;;7.40;56.80;;;;;;5052140;28;20198;-67
2023/03/16 16:25:48;;;;;;;7.83;4.03;;;7.20;56.70;;;;;;5051852;28;20296;-66
2023/03/16 16:28:20;;;;;;;8.10;5.37;;;7.20;57.00;;;;;;5051792;28;20698;-68
2023/03/16 16:30:50;;;;;;;7.83;4.30;;;7.10;57.30;;;;;;5051999;28;20195;-66
2023/03/16 16:33:24;;;;;;;11.40;5.10;;;7.00;57.40;;;;;;5051820;28;20233;-66
2023/03/16 16:35:54;;;;;;;6.80;3.77;;;6.90;57.60;;;;;;5051860;28;20201;-66
2023/03/16 16:38:23;;;;;;;5.73;2.60;;;6.80;56.90;;;;;;5051736;28;20195;-68
2023/03/16 16:40:53;;;;;;;6.37;3.17;;;6.70;56.90;;;;;;5051823;28;20698;-67
2023/03/16 16:43:31;;;;;;;4.40;2.60;;;6.70;57.00;;;;;;5051431;28;20190;-65
2023/03/16 16:46:03;;;;;;;4.73;2.80;;;6.70;57.20;;;;;;5051392;28;20273;-67
2023/03/16 16:48:33;;;;;;;8.70;3.20;;;6.60;57.60;;;;;;5051342;28;20191;-67
2023/03/16 16:51:03;;;;;;;7.70;3.67;;;6.60;57.90;;;;;;5051354;28;20300;-66
2023/03/16 16:53:31;;;;;;;5.67;3.50;;;6.60;58.10;;;;;;5051359;28;20248;-66
2023/03/16 16:56:00;;;;;;;5.40;3.50;;;6.50;58.20;;;;;;5051351;28;20186;-65
2023/03/16 16:58:29;;;;;;;8.83;4.43;;;6.40;58.40;;;;;;5051290;28;20296;-65
2023/03/16 17:00:59;;;;;;;15.30;6.73;;;6.30;58.90;;;;;;5051190;28;20721;-70
2023/03/16 17:03:29;;;;;;;17.53;8.93;;;6.30;59.30;;;;;;5051447;28;20194;-67
2023/03/16 17:05:59;;;;;;;24.17;11.17;;;6.30;59.80;;;;;;5051387;28;20189;-65
2023/03/16 17:08:27;;;;;;;20.30;11.13;;;6.20;60.10;;;;;;5051158;28;20190;-67
2023/03/16 17:10:57;;;;;;;20.57;12.30;;;6.10;60.80;;;;;;5051187;28;20277;-67
2023/03/16 17:13:29;;;;;;;27.10;12.50;;;6.10;61.30;;;;;;5051300;28;20186;-66
2023/03/16 17:15:59;;;;;;;31.13;17.93;;;6.00;61.70;;;;;;5051170;28;20599;-68
2023/03/16 17:18:29;;;;;;;28.60;15.13;;;5.90;62.30;;;;;;5051360;28;20201;-67
2023/03/16 17:20:58;;;;;;;27.80;15.87;;;5.90;62.70;;;;;;5051237;28;20194;-67
2023/03/16 17:23:30;;;;;;;30.70;16.53;;;5.80;62.80;;;;;;5051134;28;20193;-67
2023/03/16 17:26:01;;;;;;;33.10;18.33;;;5.70;63.60;;;;;;5051088;28;20678;-68
2023/03/16 17:28:35;;;;;;;38.40;23.10;;;5.60;64.90;;;;;;5050924;28;20259;-67
2023/03/16 17:31:04;;;;;;;40.57;25.03;;;5.50;65.50;;;;;;5051389;28;20629;-67
2023/03/16 17:33:34;;;;;;;47.17;24.57;;;5.40;67.60;;;;;;5051196;28;20225;-67
2023/03/16 17:36:03;;;;;;;35.27;21.80;;;5.30;68.00;;;;;;5051072;28;20260;-68
2023/03/16 17:38:32;;;;;;;31.47;20.23;;;5.20;68.60;;;;;;5051153;28;20201;-68
2023/03/16 17:41:01;;;;;;;50.40;27.10;;;5.20;68.80;;;;;;5051299;28;20182;-67
2023/03/16 17:43:31;;;;;;;35.43;19.50;;;5.20;69.00;;;;;;5050915;28;20186;-68
2023/03/16 17:46:02;;;;;;;30.20;16.63;;;5.00;70.10;;;;;;5051097;28;20194;-68
2023/03/16 17:48:31;;;;;;;29.73;16.00;;;5.00;70.60;;;;;;5050820;28;20309;-65
2023/03/16 17:51:01;;;;;;;36.40;20.53;;;4.90;70.90;;;;;;5051165;28;20559;-66
2023/03/16 17:53:30;;;;;;;28.23;17.47;;;4.90;72.10;;;;;;5050863;28;20562;-66
2023/03/16 17:55:58;;;;;;;31.70;17.50;;;4.80;72.50;;;;;;5051104;28;20200;-66
2023/03/16 17:58:29;;;;;;;32.40;16.43;;;4.60;73.30;;;;;;5050853;28;20815;-66
2023/03/16 18:00:58;;;;;;;30.77;16.90;;;4.50;74.60;;;;;;5050728;28;20237;-66
2023/03/16 18:03:27;;;;;;;35.63;18.10;;;4.30;75.30;;;;;;5050814;28;20226;-66
2023/03/16 18:05:58;;;;;;;30.23;18.60;;;4.10;77.30;;;;;;5050972;28;20201;-67
2023/03/16 18:08:32;;;;;;;36.57;18.10;;;4.10;78.60;;;;;;5052317;28;20244;-66
2023/03/16 18:11:03;;;;;;;31.67;15.67;;;4.20;78.50;;;;;;5054510;28;20601;-66
2023/03/16 18:13:33;;;;;;;29.73;15.00;;;4.20;77.10;;;;;;5054434;28;20217;-65
2023/03/16 18:16:03;;;;;;;27.80;15.03;;;4.20;77.80;;;;;;5054428;28;20198;-65
2023/03/16 18:18:36;;;;;;;27.87;14.80;;;4.10;79.40;;;;;;5054561;28;20202;-66
2023/03/16 18:21:05;;;;;;;26.37;13.40;;;4.00;79.90;;;;;;5054333;28;20330;-64
2023/03/16 18:23:38;;;;;;;23.27;11.83;;;3.90;80.00;;;;;;5054317;28;20214;-65
2023/03/16 18:26:07;;;;;;;20.90;12.27;;;3.70;83.50;;;;;;5054107;28;20233;-66